createdAt,value
2019-02-22T00:02:56.937Z,52.20
2019-02-22T00:06:33.941Z,51.53
2019-02-22T00:10:18.746Z,53.47
2019-02-22T00:14:03.863Z,53.43
2019-02-22T00:17:48.846Z,54.20
2019-02-22T00:21:33.676Z,54.87
2019-02-22T00:25:18.742Z,53.27
2019-02-22T00:29:03.857Z,57.53
2019-02-22T00:32:48.719Z,50.87
2019-02-22T00:36:33.847Z,53.23
2019-02-22T00:40:18.590Z,54.37
2019-02-22T00:44:03.453Z,56.37
2019-02-22T00:47:48.225Z,55.97
2019-02-22T00:51:33.144Z,54.40
2019-02-22T00:55:17.897Z,53.07
2019-02-22T00:59:02.638Z,50.90
2019-02-22T01:02:47.571Z,54.27
2019-02-22T01:06:25.566Z,53.13
2019-02-22T01:10:10.322Z,55.93
2019-02-22T01:13:55.068Z,52.53
2019-02-22T01:17:39.860Z,52.33
2019-02-22T01:21:24.670Z,53.70
2019-02-22T01:25:09.382Z,53.27
2019-02-22T01:28:54.099Z,54.97
2019-02-22T01:32:38.984Z,53.87
2019-02-22T01:36:23.862Z,56.77
2019-02-22T01:40:08.744Z,56.87
2019-02-22T01:43:53.547Z,51.03
2019-02-22T01:47:38.306Z,56.50
2019-02-22T01:51:23.154Z,53.93
2019-02-22T01:55:08.042Z,56.63
2019-02-22T01:58:53.135Z,56.77
2019-02-22T02:02:38.033Z,56.30
2019-02-22T02:06:15.726Z,56.33
2019-02-22T02:09:41.401Z,55.37
2019-02-22T02:13:26.340Z,56.40
2019-02-22T02:17:11.200Z,55.60
2019-02-22T02:20:56.284Z,58.53
2019-02-22T02:24:41.062Z,57.57
2019-02-22T02:28:25.832Z,56.60
2019-02-22T02:32:10.601Z,59.00
2019-02-22T02:35:55.423Z,59.43
2019-02-22T02:39:40.258Z,59.50
2019-02-22T02:43:25.364Z,58.57
2019-02-22T02:47:10.221Z,60.73
2019-02-22T02:50:36.138Z,64.33
2019-02-22T02:54:01.727Z,66.30
2019-02-22T02:57:46.739Z,66.20
2019-02-22T03:01:31.606Z,63.33
2019-02-22T03:05:16.500Z,62.90
2019-02-22T03:09:01.533Z,61.83
2019-02-22T03:12:46.533Z,62.80
2019-02-22T03:16:31.263Z,59.30
2019-02-22T03:20:16.325Z,63.63
2019-02-22T03:24:01.735Z,54.57
2019-02-22T03:27:46.518Z,61.90
2019-02-22T03:31:12.497Z,58.83
2019-02-22T03:34:57.439Z,66.07
2019-02-22T03:38:42.614Z,59.07
2019-02-22T03:42:27.388Z,59.37
2019-02-22T03:46:12.250Z,58.30
2019-02-22T03:49:57.170Z,62.00
2019-02-22T03:54:00.949Z,62.47
2019-02-22T03:57:45.733Z,62.20
2019-02-22T04:01:30.657Z,61.63
2019-02-22T04:05:15.436Z,57.13
2019-02-22T04:08:52.790Z,60.20
2019-02-22T04:12:37.750Z,60.20
2019-02-22T04:16:22.662Z,61.43
2019-02-22T04:20:07.664Z,62.33
2019-02-22T04:23:52.915Z,61.80
2019-02-22T04:27:37.634Z,63.07
2019-02-22T04:31:22.655Z,59.80
2019-02-22T04:35:07.951Z,61.73
2019-02-22T04:38:52.818Z,63.33
2019-02-22T04:42:37.790Z,61.47
2019-02-22T04:46:22.794Z,59.27
2019-02-22T04:50:08.251Z,61.67
2019-02-22T04:53:53.030Z,58.87
2019-02-22T04:57:37.952Z,59.03
2019-02-22T05:01:22.829Z,56.63
2019-02-22T05:05:09.277Z,55.07
2019-02-22T05:08:47.140Z,57.10
2019-02-22T05:12:32.147Z,59.13
2019-02-22T05:16:17.323Z,52.83
2019-02-22T05:20:02.127Z,55.00
2019-02-22T05:23:47.066Z,56.00
2019-02-22T05:27:31.682Z,58.07
2019-02-22T05:30:57.277Z,58.93
2019-02-22T05:34:22.910Z,59.93
2019-02-22T05:38:07.816Z,57.53
2019-02-22T05:41:53.664Z,56.63
2019-02-22T05:45:38.974Z,57.13
2019-02-22T05:49:23.911Z,52.87
2019-02-22T05:52:49.522Z,55.80
2019-02-22T06:00:38.294Z,57.23
2019-02-22T06:04:17.263Z,55.43
2019-02-22T06:08:02.226Z,56.97
2019-02-22T06:12:05.652Z,54.50
2019-02-22T06:15:50.264Z,57.83
2019-02-22T06:19:34.898Z,55.90
2019-02-22T06:23:34.489Z,57.67
2019-02-22T06:27:06.109Z,59.90
2019-02-22T06:34:42.763Z,60.13
2019-02-22T06:38:27.374Z,57.73
2019-02-22T06:46:02.939Z,56.87
2019-02-22T06:53:38.651Z,52.90
2019-02-22T06:57:23.536Z,49.40
2019-02-22T07:01:08.214Z,54.17
2019-02-22T07:04:45.499Z,57.57
2019-02-22T07:08:30.435Z,57.07
2019-02-22T07:12:33.890Z,54.90
2019-02-22T07:16:18.501Z,56.27
2019-02-22T07:20:03.132Z,56.60
2019-02-22T07:23:48.044Z,56.57
2019-02-22T07:27:32.691Z,56.90
2019-02-22T07:35:09.703Z,55.13
2019-02-22T07:38:54.145Z,53.00
2019-02-22T07:42:39.084Z,57.07
2019-02-22T07:46:23.696Z,52.70
2019-02-22T07:50:10.571Z,53.97
2019-02-22T07:53:55.211Z,54.37
2019-02-22T07:57:40.290Z,56.47
2019-02-22T08:01:27.001Z,53.60
2019-02-22T08:05:05.725Z,53.53
2019-02-22T08:08:50.722Z,53.63
2019-02-22T08:16:25.672Z,52.70
2019-02-22T08:20:29.150Z,51.10
2019-02-22T08:24:13.794Z,51.63
2019-02-22T08:27:58.406Z,49.50
2019-02-22T08:31:43.076Z,54.60
2019-02-22T08:35:27.710Z,48.87
2019-02-22T08:39:12.315Z,48.03
2019-02-22T08:42:57.062Z,51.20
2019-02-22T08:46:41.710Z,53.00
2019-02-22T08:50:26.360Z,52.40
2019-02-22T08:54:10.971Z,53.33
2019-02-22T09:01:46.040Z,48.03
2019-02-22T09:05:24.633Z,48.83
2019-02-22T09:09:09.290Z,54.60
2019-02-22T09:12:54.190Z,49.23
2019-02-22T09:16:38.905Z,53.35
2019-02-22T09:20:23.821Z,53.50
2019-02-22T09:24:08.478Z,53.50
2019-02-22T09:27:53.089Z,55.13
2019-02-22T09:31:38.071Z,49.80
2019-02-22T09:35:22.671Z,52.98
2019-02-22T09:39:08.039Z,51.47
2019-02-22T09:42:52.687Z,52.63
2019-02-22T09:46:37.317Z,50.83
2019-02-22T09:50:21.958Z,49.20
2019-02-22T09:54:25.431Z,45.98
2019-02-22T09:58:10.042Z,47.60
2019-02-22T10:01:54.681Z,47.75
2019-02-22T10:05:31.694Z,45.78
2019-02-22T10:09:16.580Z,43.78
2019-02-22T10:13:01.259Z,41.90
2019-02-22T10:16:45.887Z,42.78
2019-02-22T10:20:30.533Z,46.53
2019-02-22T10:24:15.148Z,48.60
2019-02-22T10:28:00.063Z,46.42
2019-02-22T10:31:44.666Z,45.78
2019-02-22T10:35:29.629Z,47.93
2019-02-22T10:39:14.225Z,47.40
2019-02-22T10:42:59.258Z,45.88
2019-02-22T10:46:43.894Z,44.27
2019-02-22T10:50:28.542Z,44.18
2019-02-22T10:54:13.420Z,42.13
2019-02-22T10:57:58.035Z,40.12
2019-02-22T11:01:42.647Z,39.65
2019-02-22T11:05:20.168Z,41.95
2019-02-22T11:09:05.725Z,43.75
2019-02-22T11:12:59.251Z,41.23
2019-02-22T11:17:02.727Z,42.38
2019-02-22T11:20:48.059Z,42.88
2019-02-22T11:24:34.104Z,40.60
2019-02-22T11:28:18.752Z,41.33
2019-02-22T11:32:03.370Z,43.78
2019-02-22T11:35:48.032Z,40.03
2019-02-22T11:39:32.644Z,43.17
2019-02-22T11:43:17.282Z,42.90
2019-02-22T11:47:02.199Z,42.90
2019-02-22T11:50:47.061Z,41.05
2019-02-22T11:54:33.222Z,41.55
2019-02-22T11:58:17.950Z,40.48
2019-02-22T12:02:02.577Z,42.50
2019-02-22T12:05:40.042Z,40.03
2019-02-22T12:09:24.668Z,38.90
2019-02-22T12:13:09.297Z,34.38
2019-02-22T12:16:54.053Z,32.95
2019-02-22T12:20:38.765Z,32.53
2019-02-22T12:24:22.788Z,33.33
2019-02-22T12:28:07.431Z,29.32
2019-02-22T12:31:52.118Z,29.80
2019-02-22T12:35:36.836Z,29.98
2019-02-22T12:39:21.513Z,26.75
2019-02-22T12:43:06.565Z,22.98
2019-02-22T12:46:51.506Z,22.45
2019-02-22T12:50:36.319Z,20.92
2019-02-22T12:54:21.267Z,19.30
2019-02-22T12:58:05.920Z,20.52
2019-02-22T13:01:50.587Z,19.85
2019-02-22T13:05:28.373Z,21.33
2019-02-22T13:09:13.010Z,21.12
2019-02-22T13:12:57.653Z,20.82
2019-02-22T13:16:42.275Z,18.35
2019-02-22T13:20:27.221Z,15.03
2019-02-22T13:24:11.839Z,14.53
2019-02-22T13:27:56.664Z,13.30
2019-02-22T13:31:41.311Z,11.97
2019-02-22T13:35:44.939Z,12.40
2019-02-22T13:39:29.841Z,12.98
2019-02-22T13:43:14.601Z,14.30
2019-02-22T13:50:49.907Z,13.70
2019-02-22T13:54:34.536Z,14.30
2019-02-22T13:58:11.482Z,12.00
2019-02-22T14:01:56.204Z,10.00
2019-02-22T14:05:40.837Z,10.82
2019-02-22T14:09:25.471Z,9.75
2019-02-22T14:13:10.117Z,8.10
2019-02-22T14:16:56.853Z,6.58
2019-02-22T14:20:41.471Z,6.60
2019-02-22T14:24:26.137Z,7.47
2019-02-22T14:28:12.195Z,6.92
2019-02-22T14:31:57.266Z,7.62
2019-02-22T14:35:42.245Z,6.92
2019-02-22T14:39:26.861Z,6.37
2019-02-22T14:43:16.454Z,7.53
2019-02-22T14:46:57.809Z,8.60
2019-02-22T14:50:42.440Z,9.70
2019-02-22T14:54:27.064Z,11.35
2019-02-22T14:58:04.275Z,14.35
2019-02-22T15:01:48.926Z,14.90
2019-02-22T15:05:33.564Z,17.75
2019-02-22T15:09:18.775Z,16.40
2019-02-22T15:13:03.694Z,16.17
2019-02-22T15:17:07.177Z,16.30
2019-02-22T15:20:52.447Z,19.57
2019-02-22T15:24:37.367Z,16.17
2019-02-22T15:28:22.517Z,15.80
2019-02-22T15:32:07.545Z,16.55
2019-02-22T15:36:11.032Z,15.68
2019-02-22T15:39:56.024Z,17.07
2019-02-22T15:47:31.788Z,14.65
2019-02-22T15:51:16.402Z,13.58
2019-02-22T15:54:54.178Z,14.15
2019-02-22T15:58:38.850Z,13.50
2019-02-22T16:02:23.484Z,15.05
2019-02-22T16:06:08.212Z,16.30
2019-02-22T16:09:53.183Z,13.83
2019-02-22T16:13:37.831Z,13.30
2019-02-22T16:17:22.456Z,13.68
2019-02-22T16:21:07.113Z,13.40
2019-02-22T16:24:51.750Z,11.55
2019-02-22T16:28:36.409Z,11.33
2019-02-22T16:32:21.144Z,12.13
2019-02-22T16:36:06.048Z,11.28
2019-02-22T16:39:52.443Z,12.18
2019-02-22T16:43:18.033Z,11.65
2019-02-22T16:47:02.828Z,10.90
2019-02-22T16:54:51.041Z,12.33
2019-02-22T16:58:27.973Z,13.58
2019-02-22T17:02:12.603Z,12.05
2019-02-22T17:05:57.209Z,12.47
2019-02-22T17:09:41.880Z,12.88
2019-02-22T17:13:26.503Z,13.45
2019-02-22T17:17:30.451Z,13.78
2019-02-22T17:25:25.733Z,15.83
2019-02-22T17:32:22.434Z,16.85
2019-02-22T17:35:48.041Z,21.70
2019-02-22T17:39:14.827Z,17.87
2019-02-22T17:42:40.421Z,17.05
2019-02-22T17:46:06.026Z,16.57
2019-02-22T17:49:34.010Z,17.07
2019-02-22T17:52:59.637Z,19.17
2019-02-22T17:56:25.303Z,16.55
2019-02-22T17:59:50.963Z,18.57
2019-02-22T18:03:16.562Z,23.50
2019-02-22T18:06:42.164Z,21.00
2019-02-22T18:10:08.402Z,17.67
2019-02-22T18:13:34.622Z,14.47
2019-02-22T18:17:08.142Z,16.85
2019-02-22T18:20:27.642Z,16.82
2019-02-22T18:23:53.296Z,15.60
2019-02-22T18:27:21.288Z,18.20
2019-02-22T18:30:47.035Z,17.20
2019-02-22T18:34:13.086Z,15.63
2019-02-22T18:37:39.027Z,15.30
2019-02-22T18:41:04.671Z,16.27
2019-02-22T18:44:30.748Z,15.10
2019-02-22T18:47:56.457Z,16.15
2019-02-22T18:51:22.385Z,13.97
2019-02-22T18:54:47.971Z,15.63
2019-02-22T18:58:13.685Z,14.67
2019-02-22T19:01:39.274Z,14.87
2019-02-22T19:05:05.159Z,14.87
2019-02-22T19:08:32.599Z,15.63
2019-02-22T19:11:58.330Z,14.60
2019-02-22T19:15:23.979Z,14.77
2019-02-22T19:18:49.565Z,12.93
2019-02-22T19:22:15.561Z,14.67
2019-02-22T19:25:41.582Z,13.53
2019-02-22T19:29:07.609Z,13.67
2019-02-22T19:32:33.255Z,13.87
2019-02-22T19:35:59.326Z,14.40
2019-02-22T19:39:24.982Z,15.03
2019-02-22T19:42:50.575Z,16.00
2019-02-22T19:46:16.180Z,16.47
2019-02-22T19:49:41.899Z,18.90
2019-02-22T19:53:07.884Z,17.23
2019-02-22T19:56:33.708Z,16.83
2019-02-22T20:00:01.888Z,17.57
2019-02-22T20:03:27.706Z,18.07
2019-02-22T20:06:54.409Z,17.97
2019-02-22T20:10:21.182Z,18.47
2019-02-22T20:13:47.102Z,22.50
2019-02-22T20:17:12.778Z,23.53
2019-02-22T20:20:40.112Z,25.87
2019-02-22T20:24:05.730Z,27.77
2019-02-22T20:27:32.755Z,25.47
2019-02-22T20:30:58.968Z,27.43
2019-02-22T20:34:25.435Z,27.63
2019-02-22T20:37:54.195Z,31.10
2019-02-22T20:41:20.133Z,28.77
2019-02-22T20:44:47.044Z,29.83
2019-02-22T20:48:12.952Z,29.13
2019-02-22T20:51:38.636Z,30.13
2019-02-22T20:55:05.282Z,31.43
2019-02-22T20:58:30.882Z,31.23
2019-02-22T21:01:57.825Z,30.47
2019-02-22T21:05:23.595Z,31.27
2019-02-22T21:08:53.992Z,30.57
2019-02-22T21:12:21.595Z,31.33
2019-02-22T21:15:47.244Z,28.23
2019-02-22T21:19:12.900Z,32.33
2019-02-22T21:22:39.131Z,32.70
2019-02-22T21:26:05.193Z,29.13
2019-02-22T21:29:30.893Z,29.77
2019-02-22T21:32:56.623Z,30.50
2019-02-22T21:36:22.224Z,31.33
2019-02-22T21:39:48.121Z,30.73
2019-02-22T21:43:13.780Z,30.73
2019-02-22T21:46:40.059Z,32.93
2019-02-22T21:50:06.642Z,31.43
2019-02-22T21:53:32.276Z,31.57
2019-02-22T21:56:58.018Z,33.30
2019-02-22T22:00:25.297Z,30.73
2019-02-22T22:03:51.447Z,32.50
2019-02-22T22:07:17.229Z,27.67
2019-02-22T22:10:43.889Z,30.97
2019-02-22T22:14:09.565Z,29.77
2019-02-22T22:17:36.481Z,32.00
2019-02-22T22:21:02.066Z,29.97
2019-02-22T22:24:27.709Z,29.47
2019-02-22T22:27:55.486Z,29.27
2019-02-22T22:31:21.203Z,30.27
2019-02-22T22:34:46.804Z,30.30
2019-02-22T22:38:13.569Z,30.67
2019-02-22T22:41:40.598Z,29.80
2019-02-22T22:45:07.382Z,28.93
2019-02-22T22:48:35.132Z,31.17
2019-02-22T22:52:01.280Z,30.13
2019-02-22T22:55:31.540Z,29.17
2019-02-22T22:58:57.234Z,29.53
2019-02-22T23:02:24.430Z,30.50
2019-02-22T23:05:50.361Z,28.97
2019-02-22T23:09:20.905Z,28.30
2019-02-22T23:12:46.518Z,29.03
2019-02-22T23:16:12.269Z,30.93
2019-02-22T23:19:37.974Z,26.97
2019-02-22T23:23:04.314Z,29.17
2019-02-22T23:26:30.046Z,30.73
2019-02-22T23:29:56.713Z,29.43
2019-02-22T23:33:22.944Z,26.83
2019-02-22T23:36:48.504Z,28.77
2019-02-22T23:40:14.108Z,28.77
2019-02-22T23:43:39.821Z,30.63
2019-02-22T23:47:09.713Z,27.83
2019-02-22T23:50:35.669Z,26.87
2019-02-22T23:54:04.900Z,28.33
2019-02-22T23:57:30.932Z,27.00
